Time;durP1;ratioP1;P1;durP2;ratioP2;P2;SDS_P1;SDS_P2;PMS_P1;PMS_P2;Temp;Humidity;BMP_temperature;BMP_pressure;BME280_temperature;BME280_humidity;BME280_pressure;Samples;Min_cycle;Max_cycle;Signal;HPM_P1;HPM_P2
2020/12/21 00:00:41;;;;;;;76.85;38.50;;;;;;;6.42;100.00;102744.78;5013652;28;20030;-73
2020/12/21 00:03:27;;;;;;;74.78;38.72;;;;;;;6.32;100.00;102737.53;5013066;28;20038;-72
2020/12/21 00:06:14;;;;;;;72.82;37.95;;;;;;;6.17;100.00;102742.22;5012502;28;20029;-74
2020/12/21 00:08:59;;;;;;;72.85;38.20;;;;;;;6.57;100.00;102746.16;5014088;28;20032;-73
2020/12/21 00:11:46;;;;;;;73.60;37.83;;;;;;;6.51;100.00;102745.94;5012676;28;20022;-73
2020/12/21 00:14:32;;;;;;;71.07;38.45;;;;;;;6.55;100.00;102749.56;5013923;28;20080;-73
2020/12/21 00:17:17;;;;;;;76.22;38.88;;;;;;;6.46;100.00;102746.63;5012984;28;20446;-72
2020/12/21 00:20:04;;;;;;;75.55;37.47;;;;;;;6.42;100.00;102747.38;5013360;28;20084;-73
2020/12/21 00:22:50;;;;;;;77.80;40.88;;;;;;;6.17;100.00;102743.13;5017202;28;20096;-72
2020/12/21 00:25:35;;;;;;;79.25;40.17;;;;;;;6.26;100.00;102752.97;5016413;28;20021;-73
2020/12/21 00:28:21;;;;;;;73.82;38.33;;;;;;;6.19;100.00;102750.97;5016041;28;20030;-73
2020/12/21 00:31:07;;;;;;;79.47;39.08;;;;;;;6.13;100.00;102749.06;5017402;28;20117;-73
2020/12/21 00:33:54;;;;;;;78.30;40.40;;;;;;;6.20;100.00;102748.44;5016412;28;20037;-73
2020/12/21 00:36:41;;;;;;;73.88;38.03;;;;;;;6.05;100.00;102763.53;5016818;28;20068;-72
2020/12/21 00:39:26;;;;;;;75.38;38.83;;;;;;;6.17;100.00;102752.63;5017576;28;20474;-74
2020/12/21 00:42:12;;;;;;;74.13;39.25;;;;;;;6.36;100.00;102755.00;5015732;28;20045;-73
2020/12/21 00:44:58;;;;;;;73.40;37.63;;;;;;;6.40;100.00;102762.97;5016150;28;20026;-72
2020/12/21 00:47:44;;;;;;;75.68;37.38;;;;;;;6.44;100.00;102764.84;5016045;28;20022;-73
2020/12/21 00:50:29;;;;;;;70.10;37.28;;;;;;;6.66;100.00;102762.06;5016046;28;20057;-72
2020/12/21 00:53:15;;;;;;;75.85;38.28;;;;;;;6.48;100.00;102758.00;5016536;28;20025;-73
2020/12/21 00:56:02;;;;;;;76.72;38.00;;;;;;;6.19;100.00;102753.59;5015575;28;20034;-73
2020/12/21 00:58:49;;;;;;;70.13;36.47;;;;;;;6.28;100.00;102746.06;5014925;28;20053;-73
2020/12/21 01:01:34;;;;;;;77.35;38.30;;;;;;;6.60;100.00;102753.19;5016746;28;20041;-73
2020/12/21 01:04:21;;;;;;;71.18;37.58;;;;;;;6.62;100.00;102746.28;5015323;28;20036;-73
2020/12/21 01:07:07;;;;;;;71.72;37.50;;;;;;;6.64;100.00;102742.00;5015921;28;20038;-73
2020/12/21 01:09:52;;;;;;;72.75;35.58;;;;;;;5.86;100.00;102742.94;5015586;28;20125;-74
2020/12/21 01:12:38;;;;;;;71.70;36.63;;;;;;;6.12;100.00;102743.81;5015774;28;20026;-73
2020/12/21 01:15:24;;;;;;;74.28;35.60;;;;;;;5.95;100.00;102739.75;5015781;28;20095;-73
2020/12/21 01:18:10;;;;;;;61.97;34.83;;;;;;;6.34;100.00;102741.06;5015389;28;20108;-73
2020/12/21 01:20:55;;;;;;;66.15;35.53;;;;;;;6.01;100.00;102740.84;5016252;28;20034;-72
2020/12/21 01:23:41;;;;;;;73.90;37.22;;;;;;;6.27;100.00;102739.97;5015220;28;20021;-73
2020/12/21 01:26:28;;;;;;;68.57;36.03;;;;;;;6.15;100.00;102734.38;5015065;28;20030;-74
2020/12/21 01:29:14;;;;;;;72.28;38.83;;;;;;;6.60;100.00;102735.84;5015491;28;20037;-72
2020/12/21 01:32:00;;;;;;;71.70;37.63;;;;;;;6.66;100.00;102735.13;5014656;28;20045;-73
2020/12/21 01:34:46;;;;;;;64.72;36.50;;;;;;;6.65;100.00;102731.66;5015253;28;20454;-73
2020/12/21 01:37:31;;;;;;;65.35;36.90;;;;;;;6.36;100.00;102729.88;5015363;28;20366;-74
2020/12/21 01:40:17;;;;;;;74.80;40.20;;;;;;;5.88;100.00;102728.28;5015779;28;20044;-73
2020/12/21 01:43:03;;;;;;;69.30;37.70;;;;;;;6.29;100.00;102740.00;5015473;28;20030;-73
2020/12/21 01:45:49;;;;;;;74.03;39.63;;;;;;;5.59;100.00;102735.88;5015120;28;20030;-72
2020/12/21 01:48:36;;;;;;;70.68;38.55;;;;;;;6.06;100.00;102735.81;5015069;28;20054;-73
2020/12/21 01:51:24;;;;;;;71.82;37.70;;;;;;;5.78;100.00;102735.69;5014698;28;20048;-73
2020/12/21 01:54:10;;;;;;;69.85;40.28;;;;;;;5.78;100.00;102731.34;5015666;28;20030;-73
2020/12/21 01:56:56;;;;;;;78.28;41.58;;;;;;;5.71;100.00;102733.69;5014551;28;20461;-73
2020/12/21 01:59:42;;;;;;;72.50;40.22;;;;;;;6.18;100.00;102728.41;5015724;28;20022;-73
2020/12/21 02:02:28;;;;;;;71.03;37.60;;;;;;;5.82;100.00;102732.41;5014270;28;20057;-73
2020/12/21 02:05:13;;;;;;;74.45;38.65;;;;;;;5.54;100.00;102732.25;5014692;28;20109;-74
2020/12/21 02:07:59;;;;;;;71.75;37.78;;;;;;;5.11;100.00;102738.50;5014429;28;20034;-74
2020/12/21 02:10:45;;;;;;;73.72;37.10;;;;;;;5.18;100.00;102740.50;5014102;28;20450;-72
2020/12/21 02:13:31;;;;;;;76.85;39.13;;;;;;;5.26;100.00;102744.25;5014687;28;20439;-72
2020/12/21 02:16:16;;;;;;;74.35;38.60;;;;;;;5.63;100.00;102735.16;5014280;28;20049;-74
2020/12/21 02:19:05;;;;;;;77.65;39.50;;;;;;;5.61;100.00;102729.00;5015556;28;20226;-72
2020/12/21 02:21:51;;;;;;;74.53;39.03;;;;;;;5.31;100.00;102736.63;5014078;28;20037;-74
2020/12/21 02:24:36;;;;;;;69.70;37.75;;;;;;;5.18;100.00;102737.00;5014191;28;20489;-72
2020/12/21 02:27:22;;;;;;;67.75;37.28;;;;;;;5.72;100.00;102738.97;5014218;28;20034;-73
2020/12/21 02:30:08;;;;;;;73.45;39.53;;;;;;;5.62;100.00;102731.66;5013789;28;20076;-73
2020/12/21 02:32:54;;;;;;;76.43;39.88;;;;;;;5.68;100.00;102731.00;5013920;28;20339;-73
2020/12/21 02:35:39;;;;;;;72.40;37.75;;;;;;;6.21;100.00;102728.47;5014089;28;20041;-73
2020/12/21 02:38:25;;;;;;;73.63;38.47;;;;;;;5.93;100.00;102718.91;5013794;28;20369;-73
2020/12/21 02:41:18;;;;;;;74.50;38.83;;;;;;;5.72;100.00;102723.34;5013852;28;20030;-72
2020/12/21 02:44:03;;;;;;;76.47;40.78;;;;;;;5.85;100.00;102722.06;5013503;28;20030;-72
2020/12/21 02:46:49;;;;;;;73.40;39.83;;;;;;;5.85;100.00;102716.88;5013712;28;20029;-72
2020/12/21 02:49:35;;;;;;;71.53;38.55;;;;;;;5.87;100.00;102720.41;5013555;28;20466;-72
2020/12/21 02:52:20;;;;;;;74.13;38.13;;;;;;;5.69;100.00;102711.94;5013306;28;20037;-74
2020/12/21 02:55:06;;;;;;;72.97;39.88;;;;;;;5.60;100.00;102711.63;5014302;28;20045;-73
2020/12/21 02:57:52;;;;;;;70.10;38.28;;;;;;;5.81;100.00;102715.91;5013214;28;20025;-72
2020/12/21 03:00:38;;;;;;;70.20;38.70;;;;;;;5.75;100.00;102712.16;5013346;28;20022;-72
2020/12/21 03:03:24;;;;;;;74.70;39.65;;;;;;;6.02;100.00;102711.38;5013577;28;20037;-71
2020/12/21 03:06:09;;;;;;;80.05;43.38;;;;;;;6.13;100.00;102707.41;5013191;28;20461;-72
2020/12/21 03:08:55;;;;;;;73.63;40.17;;;;;;;6.27;100.00;102710.47;5013905;28;20034;-73
2020/12/21 03:11:45;;;;;;;72.93;38.60;;;;;;;6.37;100.00;102704.69;5013505;28;20060;-73
2020/12/21 03:14:31;;;;;;;78.75;41.42;;;;;;;6.29;100.00;102703.56;5012573;28;20053;-73
2020/12/21 03:17:16;;;;;;;67.93;38.17;;;;;;;6.04;100.00;102703.63;5014682;28;20037;-72
2020/12/21 03:20:03;;;;;;;73.53;41.15;;;;;;;6.36;100.00;102705.53;5013637;28;20034;-72
2020/12/21 03:22:49;;;;;;;73.95;39.92;;;;;;;6.15;100.00;102702.28;5013102;28;20557;-73
2020/12/21 03:25:35;;;;;;;67.82;37.22;;;;;;;6.02;100.00;102698.38;5013263;28;20045;-72
2020/12/21 03:28:20;;;;;;;63.85;37.03;;;;;;;6.48;100.00;102703.31;5014142;28;20417;-73
2020/12/21 03:31:06;;;;;;;74.88;38.20;;;;;;;6.56;100.00;102705.34;5013432;28;20037;-73
2020/12/21 03:33:52;;;;;;;67.68;36.80;;;;;;;6.06;100.00;102699.38;5013683;28;20033;-71
2020/12/21 03:36:37;;;;;;;72.28;39.17;;;;;;;6.02;100.00;102700.97;5013029;28;20022;-71
2020/12/21 03:39:23;;;;;;;79.38;41.05;;;;;;;6.18;100.00;102695.44;5014489;28;20030;-72
2020/12/21 03:42:09;;;;;;;63.53;35.90;;;;;;;5.73;100.00;102696.50;5013827;28;20041;-73
2020/12/21 03:44:55;;;;;;;65.90;35.83;;;;;;;6.02;100.00;102694.91;5013044;28;20026;-73
2020/12/21 03:47:40;;;;;;;69.03;36.15;;;;;;;6.07;100.00;102696.81;5014207;28;20029;-72
2020/12/21 03:50:26;;;;;;;67.30;35.70;;;;;;;6.55;100.00;102703.53;5013162;28;20459;-73
2020/12/21 03:53:12;;;;;;;64.90;34.58;;;;;;;6.48;100.00;102692.91;5012931;28;20038;-73
2020/12/21 03:55:58;;;;;;;62.35;33.65;;;;;;;6.45;100.00;102692.81;5014761;28;20069;-72
2020/12/21 03:58:43;;;;;;;61.10;34.30;;;;;;;6.52;100.00;102685.25;5017043;28;20029;-73
2020/12/21 04:01:29;;;;;;;56.60;31.67;;;;;;;6.11;100.00;102695.19;5016965;28;20407;-73
2020/12/21 04:04:15;;;;;;;58.80;33.67;;;;;;;6.60;100.00;102694.16;5016646;28;20447;-73
2020/12/21 04:07:00;;;;;;;59.03;33.30;;;;;;;6.53;100.00;102691.31;5016627;28;20036;-72
2020/12/21 04:09:46;;;;;;;59.50;34.13;;;;;;;6.51;100.00;102691.25;5016917;28;20030;-72
2020/12/21 04:12:35;;;;;;;57.70;32.55;;;;;;;6.66;100.00;102690.84;5016432;28;20072;-72
2020/12/21 04:15:21;;;;;;;56.08;30.48;;;;;;;6.28;100.00;102689.69;5017023;28;20034;-72
2020/12/21 04:18:07;;;;;;;52.28;29.60;;;;;;;6.41;100.00;102688.34;5017497;28;20366;-72
2020/12/21 04:20:53;;;;;;;58.78;33.17;;;;;;;5.88;100.00;102691.84;5016470;28;20133;-72
2020/12/21 04:23:39;;;;;;;48.20;27.83;;;;;;;5.43;100.00;102694.59;5016459;28;20026;-72
2020/12/21 04:26:25;;;;;;;50.85;29.25;;;;;;;5.80;100.00;102695.00;5017511;28;20034;-72
2020/12/21 04:29:11;;;;;;;57.80;30.33;;;;;;;6.25;100.00;102701.72;5016695;28;20021;-72
2020/12/21 04:31:57;;;;;;;52.53;29.15;;;;;;;6.26;100.00;102693.94;5016146;28;20113;-72
2020/12/21 04:34:42;;;;;;;51.75;30.65;;;;;;;6.31;100.00;102694.13;5015984;28;20022;-73
2020/12/21 04:37:28;;;;;;;45.85;26.73;;;;;;;6.46;100.00;102695.47;5016498;28;20129;-73
2020/12/21 04:40:14;;;;;;;46.45;27.27;;;;;;;6.39;100.00;102698.69;5015979;28;20034;-73
2020/12/21 04:43:00;;;;;;;47.15;26.95;;;;;;;6.26;100.00;102691.34;5017311;28;20517;-72
2020/12/21 04:45:53;;;;;;;64.50;30.95;;;;;;;6.13;100.00;102690.91;5016363;28;20044;-73
2020/12/21 04:48:40;;;;;;;54.45;29.08;;;;;;;6.22;100.00;102693.84;5015777;28;20049;-73
2020/12/21 04:51:32;;;;;;;51.45;26.75;;;;;;;6.60;100.00;102696.78;5016972;28;20034;-72
2020/12/21 04:54:20;;;;;;;41.25;24.10;;;;;;;6.05;100.00;102695.88;5016903;28;20374;-72
2020/12/21 04:57:06;;;;;;;45.38;25.42;;;;;;;6.20;100.00;102693.78;5017126;28;20029;-73
2020/12/21 04:59:52;;;;;;;45.67;25.77;;;;;;;6.13;100.00;102694.41;5015502;28;20037;-72
2020/12/21 05:02:40;;;;;;;44.53;25.00;;;;;;;6.59;100.00;102691.50;5015677;28;20394;-73
2020/12/21 05:05:39;;;;;;;39.28;23.73;;;;;;;6.20;100.00;102690.28;5016161;28;20458;-72
2020/12/21 05:08:25;;;;;;;40.50;24.42;;;;;;;6.45;100.00;102690.19;5016753;28;20030;-73
2020/12/21 05:11:11;;;;;;;39.03;23.65;;;;;;;6.69;100.00;102698.75;5015714;28;20091;-73
2020/12/21 05:14:10;;;;;;;42.90;24.73;;;;;;;6.36;100.00;102701.22;5015472;28;20022;-72
2020/12/21 05:16:56;;;;;;;48.08;26.30;;;;;;;6.48;100.00;102700.72;5016453;28;20026;-73
2020/12/21 05:19:43;;;;;;;43.63;24.08;;;;;;;6.15;100.00;102692.72;5015058;28;20033;-73
2020/12/21 05:22:29;;;;;;;44.63;26.42;;;;;;;6.10;100.00;102698.66;5015281;28;20061;-72
2020/12/21 05:25:14;;;;;;;45.67;26.98;;;;;;;6.16;100.00;102704.03;5015220;28;20080;-73
2020/12/21 05:28:12;;;;;;;44.85;23.73;;;;;;;5.72;100.00;102699.06;5014918;28;20038;-73
2020/12/21 05:31:06;;;;;;;47.65;26.60;;;;;;;5.82;100.00;102703.78;5016304;28;20022;-72
2020/12/21 05:33:52;;;;;;;50.33;26.40;;;;;;;5.69;100.00;102702.44;5016336;28;20076;-73
2020/12/21 05:36:38;;;;;;;46.45;26.98;;;;;;;5.83;100.00;102716.81;5015003;28;20451;-73
2020/12/21 05:39:24;;;;;;;46.78;25.67;;;;;;;5.62;100.00;102718.66;5015052;28;20041;-72
2020/12/21 05:42:12;;;;;;;43.83;25.10;;;;;;;6.08;100.00;102709.00;5014619;28;20037;-73
2020/12/21 05:45:00;;;;;;;47.45;27.42;;;;;;;5.53;100.00;102717.44;5016254;28;20026;-72
2020/12/21 05:47:49;;;;;;;43.22;24.48;;;;;;;5.10;100.00;102718.53;5015255;28;20038;-71
2020/12/21 05:50:36;;;;;;;48.42;27.60;;;;;;;5.34;100.00;102728.91;5014790;28;20132;-72
2020/12/21 05:53:23;;;;;;;44.63;26.35;;;;;;;5.84;100.00;102718.59;5013141;28;20112;-72
2020/12/21 05:56:10;;;;;;;44.50;26.40;;;;;;;5.73;100.00;102722.50;5014928;28;20053;-72
2020/12/21 05:58:57;;;;;;;46.88;25.55;;;;;;;5.86;100.00;102719.53;5013331;28;20061;-72
2020/12/21 06:01:57;;;;;;;42.22;25.88;;;;;;;6.02;100.00;102726.13;5013931;28;20087;-72
2020/12/21 06:04:50;;;;;;;46.67;26.85;;;;;;;5.93;100.00;102724.09;5014456;28;20029;-73
2020/12/21 06:07:37;;;;;;;50.38;27.67;;;;;;;6.00;100.00;102728.69;5014922;28;20025;-72
2020/12/21 06:10:26;;;;;;;47.60;26.67;;;;;;;6.12;100.00;102723.88;5014174;28;20026;-72
2020/12/21 06:13:16;;;;;;;49.22;28.42;;;;;;;6.19;100.00;102730.16;5013411;28;20030;-73
2020/12/21 06:16:02;;;;;;;45.72;28.08;;;;;;;5.96;100.00;102726.81;5013408;28;20064;-72
2020/12/21 06:18:59;;;;;;;50.22;30.20;;;;;;;6.22;100.00;102718.13;5013409;28;20062;-72
2020/12/21 06:21:48;;;;;;;46.92;27.05;;;;;;;6.32;100.00;102714.09;5013491;28;20065;-72
2020/12/21 06:24:38;;;;;;;43.97;24.23;;;;;;;5.47;100.00;102717.25;5013284;28;20033;-72
2020/12/21 06:27:24;;;;;;;45.53;25.27;;;;;;;5.57;100.00;102720.22;5013342;28;20021;-71
2020/12/21 06:30:16;;;;;;;39.75;22.98;;;;;;;5.79;100.00;102719.25;5012859;28;20458;-72
2020/12/21 06:33:03;;;;;;;45.42;25.02;;;;;;;6.17;100.00;102724.91;5013366;28;20188;-72
2020/12/21 06:35:59;;;;;;;43.58;24.98;;;;;;;5.58;100.00;102724.59;5013328;28;20029;-71
2020/12/21 06:38:46;;;;;;;42.50;24.77;;;;;;;6.07;100.00;102733.22;5013984;28;20542;-73
2020/12/21 06:41:32;;;;;;;45.45;26.75;;;;;;;6.21;100.00;102728.47;5013857;28;20042;-72
2020/12/21 06:44:28;;;;;;;52.97;29.77;;;;;;;6.29;100.00;102737.41;5012677;28;20034;-71
2020/12/21 06:47:13;;;;;;;48.92;29.67;;;;;;;6.31;100.00;102734.03;5013329;28;20030;-71
2020/12/21 06:49:59;;;;;;;54.08;31.35;;;;;;;6.20;100.00;102730.22;4990943;28;654498;-72
2020/12/21 06:52:45;;;;;;;55.20;31.67;;;;;;;6.38;100.00;102727.31;5013218;28;20466;-72
2020/12/21 06:55:35;;;;;;;51.60;29.98;;;;;;;6.18;100.00;102729.25;5013613;28;20030;-72
2020/12/21 06:58:21;;;;;;;64.88;38.75;;;;;;;5.99;100.00;102734.69;5013121;28;20036;-72
2020/12/21 07:01:06;;;;;;;47.33;28.38;;;;;;;5.39;100.00;102736.06;5013452;28;20367;-72
2020/12/21 07:03:53;;;;;;;45.63;27.50;;;;;;;5.25;100.00;102741.59;5013486;28;20099;-71
2020/12/21 07:06:39;;;;;;;42.17;25.70;;;;;;;4.64;100.00;102745.34;5013591;28;20518;-72
2020/12/21 07:09:26;;;;;;;43.05;24.98;;;;;;;4.69;100.00;102748.97;5013388;28;20428;-73
2020/12/21 07:12:12;;;;;;;39.53;24.52;;;;;;;5.09;100.00;102750.56;5013233;28;20448;-72
2020/12/21 07:15:00;;;;;;;45.85;26.25;;;;;;;5.51;100.00;102746.03;5013231;28;20066;-71
2020/12/21 07:17:46;;;;;;;40.13;24.60;;;;;;;5.58;100.00;102747.13;5014095;28;20030;-71
2020/12/21 07:20:32;;;;;;;52.65;29.13;;;;;;;5.95;100.00;102747.56;5012984;28;20044;-71
2020/12/21 07:23:17;;;;;;;49.13;28.17;;;;;;;5.85;100.00;102745.47;5014555;28;20113;-71
2020/12/21 07:26:25;;;;;;;47.88;29.45;;;;;;;6.16;100.00;102740.47;5012976;28;20466;-72
2020/12/21 07:29:10;;;;;;;42.72;26.33;;;;;;;5.75;100.00;102732.97;5013668;28;20509;-72
2020/12/21 07:31:56;;;;;;;43.75;25.00;;;;;;;5.93;100.00;102747.53;5012769;28;20092;-72
2020/12/21 07:34:42;;;;;;;43.10;25.40;;;;;;;6.23;100.00;102745.91;5012747;28;20061;-71
2020/12/21 07:37:31;;;;;;;42.15;24.45;;;;;;;5.88;100.00;102743.00;5013384;28;20026;-72
2020/12/21 07:40:21;;;;;;;62.60;38.55;;;;;;;5.87;100.00;102747.28;5013933;28;20033;-72
2020/12/21 07:43:14;;;;;;;44.58;25.38;;;;;;;5.65;100.00;102738.69;5014066;28;20092;-71
2020/12/21 07:46:04;;;;;;;41.55;25.75;;;;;;;5.59;100.00;102741.97;5014302;28;20061;-71
2020/12/21 07:48:51;;;;;;;40.85;25.90;;;;;;;5.89;100.00;102745.66;5012842;28;20041;-73
2020/12/21 07:51:41;;;;;;;40.90;23.45;;;;;;;6.01;100.00;102740.84;5012177;28;20056;-72
2020/12/21 07:54:27;;;;;;;38.78;22.38;;;;;;;5.24;100.00;102742.44;5013633;28;20038;-73
2020/12/21 07:57:14;;;;;;;38.40;22.83;;;;;;;4.87;100.00;102742.78;5012869;28;20370;-73
2020/12/21 08:00:00;;;;;;;38.45;22.90;;;;;;;5.50;100.00;102756.38;5013598;28;20119;-71
2020/12/21 08:02:50;;;;;;;37.63;22.70;;;;;;;5.02;100.00;102753.75;5013666;28;20371;-72
2020/12/21 08:05:35;;;;;;;42.70;24.05;;;;;;;4.90;100.00;102748.09;5013309;28;20121;-73
2020/12/21 08:08:25;;;;;;;46.03;25.25;;;;;;;5.25;100.00;102752.00;5012691;28;20038;-72
2020/12/21 08:11:13;;;;;;;43.00;24.83;;;;;;;5.28;100.00;102744.31;5013015;28;20056;-71
2020/12/21 08:14:00;;;;;;;40.05;24.25;;;;;;;5.30;100.00;102750.44;5014129;28;20057;-71
2020/12/21 08:16:46;;;;;;;46.10;26.95;;;;;;;5.44;100.00;102746.63;5013328;28;20443;-71
2020/12/21 08:19:32;;;;;;;42.08;25.63;;;;;;;5.68;100.00;102741.38;5014058;28;20117;-73
2020/12/21 08:22:21;;;;;;;44.50;26.02;;;;;;;5.43;100.00;102740.53;5013206;28;20026;-73
2020/12/21 08:25:09;;;;;;;39.92;24.10;;;;;;;5.46;100.00;102737.16;5013350;28;20026;-71
2020/12/21 08:27:55;;;;;;;43.92;23.92;;;;;;;5.26;100.00;102730.38;5013970;28;20036;-71
2020/12/21 08:30:42;;;;;;;42.13;23.25;;;;;;;5.14;100.00;102737.72;5014552;28;20100;-72
2020/12/21 08:33:28;;;;;;;38.75;22.73;;;;;;;5.23;100.00;102733.75;5016652;28;20400;-72
2020/12/21 08:36:22;;;;;;;41.33;23.52;;;;;;;5.18;100.00;102735.28;5015400;28;20022;-72
2020/12/21 08:39:15;;;;;;;40.95;23.95;;;;;;;5.65;100.00;102723.06;5014587;28;20453;-72
2020/12/21 08:42:00;;;;;;;39.00;24.17;;;;;;;5.49;100.00;102732.06;5016023;28;20038;-72
2020/12/21 08:44:49;;;;;;;39.50;22.13;;;;;;;4.76;100.00;102728.53;5018936;28;20017;-70
2020/12/21 08:47:39;;;;;;;41.67;24.83;;;;;;;5.26;100.00;102720.88;5017794;28;20030;-72
2020/12/21 08:50:25;;;;;;;42.95;25.27;;;;;;;5.62;100.00;102718.66;5016103;28;20070;-71
2020/12/21 08:53:10;;;;;;;37.15;23.10;;;;;;;5.18;100.00;102714.50;5016820;28;20029;-73
2020/12/21 08:55:56;;;;;;;40.75;24.13;;;;;;;5.58;100.00;102713.31;5015898;28;20066;-71
2020/12/21 08:58:42;;;;;;;40.08;23.45;;;;;;;5.41;100.00;102717.91;5015925;28;20030;-71
2020/12/21 09:01:28;;;;;;;40.10;24.10;;;;;;;5.23;100.00;102715.56;5016559;28;20026;-73
2020/12/21 09:04:14;;;;;;;42.35;23.85;;;;;;;5.27;100.00;102709.63;5016193;28;20037;-73
2020/12/21 09:07:25;;;;;;;37.40;22.70;;;;;;;5.36;100.00;102722.94;5016929;28;20439;-76
2020/12/21 09:10:11;;;;;;;37.50;21.90;;;;;;;5.24;100.00;102724.25;5017532;28;20036;-73
2020/12/21 09:12:57;;;;;;;38.17;22.58;;;;;;;5.25;100.00;102715.59;5015455;28;20466;-72
2020/12/21 09:15:44;;;;;;;40.92;23.92;;;;;;;5.98;100.00;102704.31;5015546;28;20033;-72
2020/12/21 09:18:29;;;;;;;44.97;25.42;;;;;;;5.67;100.00;102711.03;5015508;28;20034;-73
2020/12/21 09:21:20;;;;;;;46.85;26.85;;;;;;;5.93;100.00;102700.69;5015694;28;20033;-73
2020/12/21 09:24:05;;;;;;;48.10;26.15;;;;;;;5.01;100.00;102699.13;5016704;28;20034;-73
2020/12/21 09:27:11;;;;;;;47.45;26.58;;;;;;;5.66;100.00;102697.13;5015935;28;20252;-73
2020/12/21 09:29:56;;;;;;;49.00;27.52;;;;;;;5.85;100.00;102690.84;5016114;28;20053;-73
2020/12/21 09:32:45;;;;;;;50.67;28.05;;;;;;;5.23;100.00;102689.56;5016110;28;20030;-73
2020/12/21 09:35:42;;;;;;;54.67;30.40;;;;;;;5.69;100.00;102693.75;5016651;28;20454;-74
2020/12/21 09:38:34;;;;;;;43.45;25.30;;;;;;;5.68;100.00;102692.88;5016666;28;20101;-73
2020/12/21 09:41:24;;;;;;;45.72;26.10;;;;;;;5.34;100.00;102689.94;5014993;28;20030;-73
2020/12/21 09:44:10;;;;;;;43.63;25.98;;;;;;;5.30;100.00;102685.47;5015984;28;20030;-72
2020/12/21 09:46:56;;;;;;;53.97;30.23;;;;;;;5.07;100.00;102686.38;5015826;28;20112;-72
2020/12/21 09:49:47;;;;;;;57.33;31.27;;;;;;;5.12;100.00;102680.53;5014898;28;20057;-72
2020/12/21 09:52:33;;;;;;;50.38;28.33;;;;;;;5.18;100.00;102682.44;5014699;28;20103;-72
2020/12/21 09:55:19;;;;;;;51.13;28.58;;;;;;;5.03;100.00;102682.78;5015403;28;20041;-73
2020/12/21 09:58:05;;;;;;;52.60;29.30;;;;;;;5.48;100.00;102671.38;5014379;28;20026;-73
2020/12/21 10:00:51;;;;;;;55.10;30.98;;;;;;;5.68;100.00;102671.19;5014095;28;20112;-72
2020/12/21 10:03:40;;;;;;;58.20;31.83;;;;;;;5.49;100.00;102677.47;5014335;28;20025;-72
2020/12/21 10:06:26;;;;;;;59.35;32.60;;;;;;;5.41;100.00;102681.53;5013654;28;20029;-73
2020/12/21 10:09:11;;;;;;;56.30;31.40;;;;;;;5.56;100.00;102681.16;5014497;28;20478;-72
2020/12/21 10:11:57;;;;;;;57.13;29.95;;;;;;;5.38;100.00;102672.75;5014385;28;20546;-72
2020/12/21 10:14:43;;;;;;;56.10;30.90;;;;;;;5.13;100.00;102669.28;5014069;28;20034;-72
2020/12/21 10:17:29;;;;;;;48.88;27.23;;;;;;;5.24;100.00;102661.88;5014971;28;20061;-72
2020/12/21 10:20:14;;;;;;;52.97;29.65;;;;;;;5.45;100.00;102667.81;5014712;28;20113;-73
2020/12/21 10:23:00;;;;;;;49.65;27.92;;;;;;;5.36;100.00;102664.91;5014162;28;20026;-73
2020/12/21 10:25:46;;;;;;;54.97;29.65;;;;;;;5.54;100.00;102656.84;5013888;28;20458;-72
2020/12/21 10:28:32;;;;;;;55.25;30.42;;;;;;;5.95;100.00;102666.94;5014609;28;20109;-73
2020/12/21 10:31:18;;;;;;;49.53;27.55;;;;;;;5.48;100.00;102657.53;5013709;28;20117;-72
2020/12/21 10:34:04;;;;;;;48.75;29.02;;;;;;;6.11;100.00;102662.22;5015113;28;20021;-72
2020/12/21 10:36:50;;;;;;;50.53;29.08;;;;;;;6.11;100.00;102651.81;5014800;28;20068;-72
2020/12/21 10:39:36;;;;;;;45.97;26.92;;;;;;;5.62;100.00;102640.66;5014988;28;20493;-73
2020/12/21 10:42:22;;;;;;;48.35;27.77;;;;;;;5.69;100.00;102650.44;5012979;28;20030;-72
2020/12/21 10:45:07;;;;;;;47.50;28.30;;;;;;;5.83;100.00;102648.31;5013328;28;20030;-71
2020/12/21 10:47:53;;;;;;;45.33;25.65;;;;;;;5.33;100.00;102649.19;5013340;28;20036;-72
2020/12/21 10:50:39;;;;;;;45.70;26.20;;;;;;;6.05;100.00;102648.16;5013717;28;20450;-72
2020/12/21 10:53:25;;;;;;;47.45;27.98;;;;;;;6.31;100.00;102644.66;5013395;28;20137;-72
2020/12/21 10:56:12;;;;;;;48.90;28.30;;;;;;;6.11;100.00;102641.41;5014244;28;20022;-72
2020/12/21 10:58:58;;;;;;;48.92;26.63;;;;;;;5.94;100.00;102633.94;5014506;28;20040;-72
2020/12/21 11:01:47;;;;;;;48.58;29.42;;;;;;;6.56;100.00;102632.41;5012962;28;20446;-72
2020/12/21 11:04:33;;;;;;;52.80;30.27;;;;;;;6.45;100.00;102635.53;5012108;28;20128;-72
2020/12/21 11:07:18;;;;;;;53.22;30.33;;;;;;;6.40;100.00;102632.81;5013240;28;20036;-73
2020/12/21 11:10:08;;;;;;;48.85;28.95;;;;;;;6.16;100.00;102623.34;5013359;28;20041;-73
2020/12/21 11:12:54;;;;;;;51.47;28.58;;;;;;;6.34;100.00;102626.53;5013158;28;20057;-73
2020/12/21 11:15:42;;;;;;;50.78;27.15;;;;;;;6.15;100.00;102622.47;5012400;28;20018;-73
2020/12/21 11:18:28;;;;;;;47.13;27.33;;;;;;;5.68;100.00;102619.16;5014003;28;20048;-73
2020/12/21 11:21:15;;;;;;;44.10;26.80;;;;;;;6.39;100.00;102619.72;5013043;28;20018;-73
2020/12/21 11:24:01;;;;;;;44.92;26.95;;;;;;;6.59;100.00;102635.09;5013407;28;20083;-73
2020/12/21 11:26:51;;;;;;;47.28;27.33;;;;;;;6.59;100.00;102629.00;5012745;28;20026;-73
2020/12/21 11:29:36;;;;;;;53.15;30.70;;;;;;;6.46;100.00;102624.25;5012799;28;20034;-73
2020/12/21 11:32:23;;;;;;;51.00;28.17;;;;;;;6.20;100.00;102625.22;5013374;28;20109;-72
2020/12/21 11:35:09;;;;;;;51.03;28.40;;;;;;;6.44;100.00;102628.56;5012973;28;20022;-73
2020/12/21 11:37:54;;;;;;;59.50;30.98;;;;;;;5.70;100.00;102618.38;5012910;28;20026;-73
2020/12/21 11:40:40;;;;;;;54.00;28.00;;;;;;;5.60;100.00;102612.84;5013680;28;20473;-74
2020/12/21 11:43:26;;;;;;;69.93;35.13;;;;;;;6.30;100.00;102612.53;5012929;28;20374;-73
2020/12/21 11:46:13;;;;;;;56.88;30.67;;;;;;;6.71;100.00;102618.94;5013462;28;20026;-73
2020/12/21 11:48:59;;;;;;;58.97;34.60;;;;;;;6.77;100.00;102613.88;5012857;28;20159;-73
2020/12/21 11:51:44;;;;;;;53.60;29.80;;;;;;;7.00;100.00;102607.59;5013056;28;20163;-72
2020/12/21 11:54:30;;;;;;;47.03;26.58;;;;;;;7.12;100.00;102607.94;5012494;28;20026;-75
2020/12/21 11:57:16;;;;;;;42.47;26.05;;;;;;;7.17;100.00;102601.09;5014169;28;20038;-74
2020/12/21 12:00:04;;;;;;;39.55;23.60;;;;;;;6.69;100.00;102599.78;5014582;28;20034;-74
2020/12/21 12:02:50;;;;;;;42.40;26.15;;;;;;;6.50;100.00;102597.47;5013695;28;20030;-73
2020/12/21 12:05:36;;;;;;;40.03;23.73;;;;;;;6.38;100.00;102594.56;5014517;28;20033;-73
2020/12/21 12:08:23;;;;;;;43.97;25.08;;;;;;;7.12;100.00;102587.94;5014039;28;20113;-72
2020/12/21 12:11:12;;;;;;;46.17;27.23;;;;;;;7.08;100.00;102585.22;5013297;28;20096;-73
2020/12/21 12:13:58;;;;;;;47.08;26.02;;;;;;;6.68;100.00;102587.59;5013206;28;20030;-73
2020/12/21 12:16:43;;;;;;;42.60;25.40;;;;;;;6.36;100.00;102593.59;5014333;28;20064;-73
2020/12/21 12:19:29;;;;;;;43.80;26.73;;;;;;;6.57;100.00;102595.09;5016798;28;20057;-73
2020/12/21 12:22:15;;;;;;;43.33;25.77;;;;;;;6.55;100.00;102595.91;5019430;28;20030;-73
2020/12/21 12:25:01;;;;;;;46.22;26.90;;;;;;;6.73;100.00;102597.31;5017292;28;20041;-73
2020/12/21 12:27:47;;;;;;;49.13;27.38;;;;;;;6.20;100.00;102587.06;5016684;28;20500;-74
2020/12/21 12:30:33;;;;;;;50.25;28.48;;;;;;;6.72;100.00;102592.06;5016922;28;20129;-73
2020/12/21 12:33:18;;;;;;;48.15;29.42;;;;;;;6.75;100.00;102589.53;5016162;28;20465;-73
2020/12/21 12:36:04;;;;;;;43.63;25.48;;;;;;;7.16;100.00;102583.72;5017346;28;20038;-72
2020/12/21 12:38:51;;;;;;;43.03;26.75;;;;;;;7.27;100.00;102590.09;5017456;28;20373;-72